Bella Vista, Arkansas
Current Conditions -  °F | °C
As of 11:55 PM on Wednesday 17 Dec 2014 (Local Time) from KVBT Reporting Station
Overcast Overcast  
Wind Chill:   Ceiling: 4200
Heat Index:   Visibility: 10mi
Dew Point:   Wind: 5mph
Humidity: 93%   Direction: 120°ESE
Pressure: 30.19"   Gusts: NA
Location:  36.48°N, 94.25°W
Report Text: KVBT 180555Z AUTO 12004KT 10SM FEW013 SCT032 OVC042 02/01 A3019 RMK AO1 60045 10030 20020 57010
Loading
Personal Weather Stations






























Interactive Weather Map New forecast layout! Learn more

10-Day Weather Forecast

Advertisements
Track Severe Weather on mobile